Flight Track Log - Related Links

Times and Time Zones

All times are in EDT time to prevent confusion due to time zone crossing. See the SWA315 flight status page for this flight to view local times or setup timezone preferences in your user account.

Time Position Orientation Groundspeed Altitude Reporting Facility
EDT Latitude Longitude Course Direction KTS MPH feet Rate Location/Type
Thu 09:23:02 AM 37.7167 -122.2500 284° West 160 184 1,400  Level Northern Cal TRACON
Thu 09:24:02 AM 37.7333 -122.3333 284° West 234 269 2,900 2,400 Climbing Northern Cal TRACON
Thu 09:25:02 AM 37.8000 -122.3500 349° North 251 289 6,200 3,684 Climbing Northern Cal TRACON
Thu 09:25:56 AM 37.8667 -122.3500 360° North 258 297 9,900 3,440 Climbing Northern Cal TRACON
Thu 09:26:17 AM 37.8708 -122.3367 68° East 253 291 10,500 2,370 Climbing Oakland Center
Thu 09:27:17 AM 37.8908 -122.2264 77° East 324 373 13,100 2,876 Climbing Oakland Center
Thu 09:28:18 AM 37.9100 -122.1058 79° East 349 402 16,300 2,311 Climbing Oakland Center
Thu 09:29:19 AM 37.9336 -121.9531 79° East 367 422 17,800 2,132 Climbing Oakland Center
Thu 09:30:19 AM 37.9567 -121.8217 77° East 380 437 20,600 2,678 Climbing Oakland Center
Thu 09:31:20 AM 37.9833 -121.6836 76° East 401 461 23,200 2,459 Climbing Oakland Center
Thu 09:32:21 AM 38.0097 -121.5433 77° East 410 472 25,600 2,231 Climbing Oakland Center
Thu 09:33:21 AM 38.0369 -121.3944 77° East 426 490 27,700 2,083 Climbing Oakland Center
Thu 09:34:22 AM 38.0647 -121.2450 77° East 434 499 29,800 1,918 Climbing Oakland Center
Thu 09:35:23 AM 38.0922 -121.0944 77° East 440 506 31,600 1,967 Climbing Oakland Center
Thu 09:36:24 AM 38.1206 -120.9456 76° East 440 506 33,800 1,736 Climbing Oakland Center
Thu 09:37:24 AM 38.1467 -120.7956 77° East 438 504 35,100 1,488 Climbing Oakland Center
Thu 09:38:25 AM 38.1736 -120.6447 77° East 439 505 36,800 1,279 Climbing Oakland Center
Thu 09:39:26 AM 38.2006 -120.4939 77° East 440 506 37,700 885 Climbing Oakland Center
Thu 09:40:27 AM 38.2272 -120.3383 78° East 449 517 38,600 639 Climbing Oakland Center
Thu 09:41:28 AM 38.2550 -120.1808 77° East 456 525 39,000 197 Climbing Oakland Center
Thu 09:42:29 AM 38.2806 -120.0269 78° East 447 514 39,000  Level Oakland Center
Thu 09:43:29 AM 38.3125 -119.8408 78° East 449 517 39,000  Level Oakland Center
Thu 09:44:30 AM 38.3397 -119.6867 77° East 448 516 39,000  Level Oakland Center
Thu 09:45:32 AM 38.3647 -119.5336 78° East 444 511 39,000  Level Oakland Center
Thu 09:46:32 AM 38.3861 -119.3947 79° East 443 510 39,000  Level Oakland Center
Thu 09:47:33 AM 38.4111 -119.2422 78° East 442 509 39,000  Level Oakland Center
Thu 09:48:34 AM 38.4361 -119.0889 78° East 443 510 39,000  Level Oakland Center
Thu 09:49:35 AM 38.4658 -118.9022 78° East 449 517 39,000  Level Oakland Center
Thu 09:50:36 AM 38.4903 -118.7456 79° East 451 519 39,000  Level Oakland Center
Thu 09:51:37 AM 38.5153 -118.5897 78° East 451 519 39,000  Level Oakland Center
Thu 09:52:38 AM 38.5397 -118.4344 79° East 450 518 39,000  Level Oakland Center
Thu 09:53:39 AM 38.5631 -118.2797 79° East 448 516 39,000  Level Oakland Center
Thu 09:54:40 AM 38.5867 -118.1236 79° East 449 517 39,000  Level Oakland Center
Thu 09:55:41 AM 38.6106 -117.9681 79° East 451 519 39,000  Level Oakland Center
Thu 09:56:42 AM 38.6331 -117.8097 80° East 452 520 39,000  Level Oakland Center
Thu 09:57:43 AM 38.6578 -117.6539 78° East 447 514 39,000  Level Oakland Center
Thu 09:58:44 AM 38.6806 -117.4978 79° East 444 511 39,000  Level Oakland Center
Thu 09:59:44 AM 38.7033 -117.3436 79° East 441 507 39,000  Level Oakland Center
Thu 10:00:40 AM 38.7247 -117.1856 80° East 443 510 39,000  Level Salt Lake Center
Thu 10:01:42 AM 38.7475 -117.0283 79° East 446 513 39,000  Level Salt Lake Center
Thu 10:02:43 AM 38.7697 -116.8706 80° East 447 514 39,000  Level Salt Lake Center
Thu 10:03:45 AM 38.7917 -116.7133 80° East 446 513 39,000  Level Salt Lake Center
Thu 10:04:50 AM 38.8147 -116.5547 79° East 451 519 39,000  Level Oakland Center
Thu 10:05:51 AM 38.8411 -116.3639 80° East 451 519 39,000  Level Oakland Center
Thu 10:06:49 AM 38.8567 -116.2367 81° East 449 517 39,000  Level Salt Lake Center
Thu 10:07:50 AM 38.8778 -116.0783 80° East 449 517 39,000  Level Salt Lake Center
Thu 10:08:52 AM 38.9042 -115.8878 80° East 451 519 39,000  Level Salt Lake Center
Thu 10:09:53 AM 38.9256 -115.7261 80° East 458 527 39,000  Level Salt Lake Center
Thu 10:10:55 AM 38.9467 -115.5647 80° East 460 529 39,000  Level Salt Lake Center
Thu 10:11:56 AM 38.9669 -115.4011 81° East 461 531 39,000  Level Salt Lake Center
Thu 10:12:57 AM 38.9900 -115.2344 80° East 467 537 39,000  Level Salt Lake Center
Thu 10:13:59 AM 39.0100 -115.0700 81° East 468 539 39,000  Level Salt Lake Center
Thu 10:15:00 AM 39.0306 -114.9078 81° East 463 533 39,000  Level Salt Lake Center
Thu 10:16:02 AM 39.0503 -114.7436 81° East 464 534 39,000  Level Salt Lake Center
Thu 10:17:03 AM 39.0706 -114.5794 81° East 465 535 39,000  Level Salt Lake Center
Thu 10:18:05 AM 39.0903 -114.4181 81° East 460 529 39,000  Level Salt Lake Center
Thu 10:19:06 AM 39.1136 -114.2236 81° East 460 529 39,000  Level Salt Lake Center
Thu 10:20:08 AM 39.1325 -114.0592 82° East 464 534 39,000  Level Salt Lake Center
Thu 10:21:09 AM 39.1528 -113.8961 81° East 462 532 39,000  Level Salt Lake Center
Thu 10:22:11 AM 39.1706 -113.7319 82° East 463 533 39,000  Level Salt Lake Center
Thu 10:23:12 AM 39.1894 -113.5692 81° East 461 531 39,000  Level Salt Lake Center
Thu 10:24:13 AM 39.2075 -113.4050 82° East 463 533 39,000  Level Salt Lake Center
Thu 10:25:15 AM 39.2253 -113.2414 82° East 462 532 39,000  Level Salt Lake Center
Thu 10:26:16 AM 39.2428 -113.0783 82° East 460 529 39,000  Level Salt Lake Center
Thu 10:27:18 AM 39.2600 -112.9147 82° East 461 531 39,000  Level Salt Lake Center
Thu 10:28:19 AM 39.2803 -112.7175 82° East 463 533 39,000  Level Salt Lake Center
Thu 10:29:20 AM 39.2972 -112.5597 82° East 466 536 39,000  Level Salt Lake Center
Thu 10:30:22 AM 39.3231 -112.3983 78° East 464 534 39,000  Level Salt Lake Center
Thu 10:31:23 AM 39.3539 -112.2394 76° East 460 529 39,000  Level Salt Lake Center
Thu 10:32:25 AM 39.3828 -112.0800 77° East 459 528 39,000  Level Salt Lake Center
Thu 10:33:26 AM 39.4122 -111.9208 76° East 458 527 39,000  Level Salt Lake Center
Thu 10:34:28 AM 39.4472 -111.7311 77° East 455 524 39,000  Level Salt Lake Center
Thu 10:35:29 AM 39.4750 -111.5736 77° East 453 521 39,000  Level Salt Lake Center
Thu 10:36:31 AM 39.5047 -111.4144 76° East 455 524 39,000  Level Salt Lake Center
Thu 10:37:32 AM 39.5342 -111.2389 78° East 461 531 39,000  Level Salt Lake Center
Thu 10:38:33 AM 39.5625 -111.0833 77° East 463 533 39,000  Level Salt Lake Center
Thu 10:39:35 AM 39.5897 -110.9283 77° East 462 532 39,000  Level Salt Lake Center
Thu 10:40:36 AM 39.6200 -110.7458 78° East 463 533 39,000  Level Salt Lake Center
Thu 10:41:38 AM 39.6475 -110.5903 77° East 462 532 39,000  Level Salt Lake Center
Thu 10:42:39 AM 39.6781 -110.4108 77° East 458 527 39,000  Level Salt Lake Center
Thu 10:43:40 AM 39.7033 -110.2558 78° East 458 527 39,000  Level Salt Lake Center
Thu 10:44:42 AM 39.7297 -110.1014 77° East 459 528 39,000  Level Salt Lake Center
Thu 10:45:43 AM 39.7589 -109.9186 78° East 463 533 39,000  Level Salt Lake Center
Thu 10:46:44 AM 39.7847 -109.7606 78° East 467 537 39,000  Level Salt Lake Center
Thu 10:47:46 AM 39.8144 -109.5761 78° East 466 536 39,000  Level Salt Lake Center
Thu 10:48:13 AM 39.8219 -109.5222 80° East 464 534 39,000  Level Denver Center
Thu 10:49:15 AM 39.8522 -109.3375 78° East 465 535 39,000  Level Denver Center
Thu 10:49:49 AM 39.8656 -109.2617 77° East 463 533 39,000  Level Salt Lake Center
Thu 10:50:17 AM 39.8775 -109.1808 79° East 463 533 39,000  Level Denver Center
Thu 10:50:50 AM 39.8936 -109.0778 78° East 461 531 39,000  Level Salt Lake Center
Thu 10:51:51 AM 39.9178 -108.9186 79° East 463 533 39,000  Level Salt Lake Center
Thu 10:52:20 AM 39.9297 -108.8381 79° East 463 533 39,000  Level Denver Center
Thu 10:53:22 AM 39.9558 -108.6775 78° East 468 539 39,000  Level Denver Center
Thu 10:54:23 AM 39.9831 -108.4922 79° East 463 533 39,000  Level Denver Center
Thu 10:55:25 AM 40.0072 -108.3333 79° East 464 534 39,000  Level Denver Center
Thu 10:56:27 AM 40.0303 -108.1750 79° East 463 533 39,000  Level Denver Center
Thu 10:57:29 AM 40.0531 -107.9883 81° East 465 535 39,000  Level Denver Center
Thu 10:58:31 AM 40.0747 -107.8283 80° East 469 540 39,000  Level Denver Center
Thu 10:59:32 AM 40.0989 -107.6408 80° East 468 539 39,000  Level Denver Center
Thu 11:00:34 AM 40.1192 -107.4808 81° East 468 539 39,000  Level Denver Center
Thu 11:01:36 AM 40.1425 -107.2942 81° East 466 536 39,000  Level Denver Center
Thu 11:02:37 AM 40.1583 -107.1603 81° East 467 537 39,000 -532 Level Denver Center
Thu 11:03:40 AM 40.1853 -106.9461 81° East 466 536 37,900 -960 Descending Denver Center
Thu 11:04:42 AM 40.2031 -106.7864 82° East 465 535 37,000 -1,645 Descending Denver Center
Thu 11:05:44 AM 40.2236 -106.6197 81° East 461 531 34,500 -2,732 Descending Denver Center
Thu 11:06:45 AM 40.2453 -106.4422 81° East 462 532 31,400 -2,634 Descending Denver Center
Thu 11:07:47 AM 40.2622 -106.2878 82° East 451 519 29,100 -2,274 Descending Denver Center
Thu 11:08:49 AM 40.2828 -106.1175 81° East 421 484 26,700 -2,177 Descending Denver Center
Thu 11:09:51 AM 40.2969 -105.9725 83° East 399 459 24,600 -1,984 Descending Denver Center
Thu 11:10:53 AM 40.3133 -105.8361 81° East 379 436 22,600 -1,887 Descending Denver Center
Thu 11:11:55 AM 40.3289 -105.6997 81° East 376 433 20,700 -1,887 Descending Denver Center
Thu 11:12:57 AM 40.3425 -105.5647 82° East 372 428 18,700 -1,306 Descending Denver Center
Thu 11:13:59 AM 40.3547 -105.4258 83° East 353 406 18,000 -1,024 Descending Denver Center
Thu 11:15:00 AM 40.3394 -105.3153 100° East 313 360 16,600 -1,366 Descending Denver Center
Thu 11:16:02 AM 40.3244 -105.2044 100° East 311 358 15,200 -1,452 Descending Denver Center
Thu 11:17:04 AM 40.3081 -105.0883 100° East 305 351 13,600 -1,645 Descending Denver Center
Thu 11:18:06 AM 40.2756 -104.9844 112° Southeast 309 356 11,800 -1,645 Descending Denver Center
Thu 11:19:08 AM 40.2381 -104.8697 113° Southeast 317 365 10,200 -1,355 Descending Denver Center
Thu 11:20:10 AM 40.1744 -104.7992 140° Southeast 317 365 9,000 -774 Descending Denver Center
Thu 11:21:12 AM 40.1061 -104.7550 154° Southeast 279 321 8,600 -585 Descending Denver Center
Thu 11:22:13 AM 40.0400 -104.7153 155° Southeast 248 285 7,800 -683 Descending Denver Center
Thu 11:23:15 AM 39.9900 -104.6953 163° South 184 212 7,200 -774 Descending Denver Center
Thu 11:24:17 AM 39.9406 -104.6956 180° South 161 185 6,200 -871 Descending Denver Center
Thu 11:25:19 AM 39.9000 -104.6964 181° South 147 169 5,400 -774 Descending Denver Center
Thu 11:27:00 AM 39.8617 -104.6732 North  Level Estimated
Thu 11:34:00 AM 39.8617 -104.6732 North  Level Estimated
Thu 11:35:00 AM 39.8617 -104.6732 North  Level Estimated

Login

Don't have an account? Register now (free) for customized features, flight alerts, and more!